Time;durP1;ratioP1;P1;durP2;ratioP2;P2;SDS_P1;SDS_P2;PMS_P1;PMS_P2;Temp;Humidity;BMP_temperature;BMP_pressure;BME280_temperature;BME280_humidity;BME280_pressure;Samples;Min_cycle;Max_cycle;Signal;HPM_P1;HPM_P2
2022/12/30 00:00:40;;;;;;;20.10;16.20;;;;;;;6.94;63.56;99910.98;108751;1271;23042;-79
2022/12/30 00:03:27;;;;;;;22.50;16.60;;;;;;;6.99;63.48;99908.78;108941;1269;21918;-79
2022/12/30 00:05:57;;;;;;;20.90;17.00;;;;;;;7.03;63.57;99909.88;108954;1271;23653;-81
2022/12/30 00:11:26;;;;;;;21.40;16.60;;;;;;;7.05;63.39;99908.95;108783;1263;21916;-81
2022/12/30 00:33:06;;;;;;;21.50;17.00;;;;;;;7.01;63.41;99913.21;108830;1273;22398;-78
2022/12/30 00:34:35;;;;;;;19.10;14.60;;;;;;;7.08;63.61;99925.80;108503;1270;21940;-80
2022/12/30 00:37:04;;;;;;;21.00;14.90;;;;;;;7.09;63.57;99926.98;108601;1277;22089;-80
2022/12/30 00:39:33;;;;;;;18.40;14.80;;;;;;;7.13;63.43;99929.98;108517;1277;23582;-79
2022/12/30 00:44:50;;;;;;;17.60;15.60;;;;;;;7.13;63.25;99925.48;108845;1273;23672;-79
2022/12/30 00:47:20;;;;;;;18.40;14.10;;;;;;;7.12;63.30;99919.64;108864;1271;21932;-79
2022/12/30 00:58:16;;;;;;;20.40;17.00;;;;;;;7.05;63.42;99935.58;108921;1271;22000;-79
2022/12/30 01:00:45;;;;;;;20.00;16.70;;;;;;;7.03;63.36;99937.55;108684;1274;21975;-81
2022/12/30 01:03:15;;;;;;;21.60;17.70;;;;;;;7.03;63.35;99941.01;108509;1274;21930;-79
2022/12/30 01:05:44;;;;;;;26.20;18.90;;;;;;;7.02;63.42;99944.84;108536;1264;23813;-79
2022/12/30 01:08:13;;;;;;;24.40;16.50;;;;;;;7.04;63.52;99949.45;108575;1276;23103;-80
2022/12/30 01:10:42;;;;;;;25.20;18.80;;;;;;;7.04;63.43;99947.90;108577;1277;21928;-81
2022/12/30 01:13:12;;;;;;;22.60;17.10;;;;;;;7.06;63.51;99950.96;108514;1277;21916;-80
2022/12/30 01:15:43;;;;;;;23.60;18.60;;;;;;;7.07;63.49;99949.38;108548;1268;21954;-79
2022/12/30 01:18:12;;;;;;;23.20;18.10;;;;;;;7.03;63.47;99949.14;108581;1277;22063;-79
2022/12/30 01:20:42;;;;;;;22.10;18.20;;;;;;;7.03;63.52;99949.81;108577;1277;21953;-79
2022/12/30 01:23:11;;;;;;;23.20;17.70;;;;;;;7.02;63.49;99953.67;108579;1274;23607;-80
2022/12/30 01:25:43;;;;;;;21.30;16.70;;;;;;;7.00;63.48;99955.97;108703;1277;22007;-78
2022/12/30 01:28:13;;;;;;;19.50;16.00;;;;;;;7.00;63.56;99956.16;108693;1273;21924;-80
2022/12/30 01:30:42;;;;;;;19.70;17.10;;;;;;;7.00;63.61;99958.58;109153;1269;22297;-80
2022/12/30 01:33:12;;;;;;;23.30;17.40;;;;;;;7.00;63.64;99961.69;108940;1270;22370;-80
2022/12/30 01:35:42;;;;;;;22.80;17.40;;;;;;;6.99;63.71;99962.23;109052;1262;23118;-79
2022/12/30 01:38:11;;;;;;;22.80;16.40;;;;;;;7.00;63.70;99956.15;109176;1271;23061;-80
2022/12/30 01:40:42;;;;;;;25.40;18.40;;;;;;;7.00;63.82;99950.43;108949;1271;22394;-80
2022/12/30 01:43:18;;;;;;;23.50;19.60;;;;;;;7.02;63.85;99950.02;109164;1271;25035;-78
2022/12/30 01:45:53;;;;;;;23.60;19.10;;;;;;;7.06;63.91;99950.28;108686;1277;21960;-81
2022/12/30 01:48:30;;;;;;;20.30;18.00;;;;;;;7.07;63.77;99952.50;108547;1278;22161;-81
2022/12/30 01:51:30;;;;;;;23.80;19.60;;;;;;;7.07;63.78;99959.59;108744;1279;22407;-81
2022/12/30 01:54:02;;;;;;;24.50;20.30;;;;;;;7.06;63.72;99957.54;108569;1280;21926;-80
2022/12/30 01:56:40;;;;;;;;;;;;;;;7.05;63.49;99959.64;108728;1271;23020;-81
2022/12/30 01:59:18;;;;;;;29.10;26.10;;;;;;;6.90;63.59;99961.96;108764;1278;23642;-81
2022/12/30 02:01:48;;;;;;;34.60;31.00;;;;;;;6.82;63.68;99962.04;108273;1285;21977;-80
2022/12/30 02:04:22;;;;;;;40.00;35.90;;;;;;;6.77;63.73;99969.08;108358;1277;22442;-80
2022/12/30 02:07:07;;;;;;;39.40;35.20;;;;;;;6.73;63.83;99973.70;108337;1279;23707;-80
2022/12/30 02:09:37;;;;;;;36.60;32.80;;;;;;;6.70;64.01;99975.02;108480;1278;21928;-80
2022/12/30 02:12:07;;;;;;;34.60;30.90;;;;;;;6.68;64.19;99976.44;108471;1278;22699;-80
2022/12/30 02:14:39;;;;;;;39.30;35.10;;;;;;;6.67;64.25;99971.98;108381;1279;21939;-80
2022/12/30 02:17:36;;;;;;;35.00;31.40;;;;;;;6.68;64.26;99977.13;108614;1279;21948;-79
2022/12/30 02:20:33;;;;;;;30.00;26.80;;;;;;;6.64;64.34;99978.95;108754;1271;23576;-79
2022/12/30 02:23:47;;;;;;;27.00;24.20;;;;;;;6.61;64.57;99987.68;108930;1272;21960;-79
2022/12/30 02:26:48;;;;;;;25.70;21.50;;;;;;;6.64;64.90;99989.86;108930;1271;21925;-80
2022/12/30 02:29:49;;;;;;;20.00;16.70;;;;;;;6.71;64.91;99988.62;108855;1260;23034;-80
2022/12/30 02:32:52;;;;;;;19.30;15.80;;;;;;;6.76;64.88;99987.10;108959;1272;21927;-81
2022/12/30 02:35:57;;;;;;;18.20;14.00;;;;;;;6.80;64.92;99990.27;108938;1269;21926;-82
2022/12/30 02:38:44;;;;;;;16.40;13.00;;;;;;;6.84;64.92;99990.88;108879;1272;22699;-83
2022/12/30 02:44:36;;;;;;;17.70;13.10;;;;;;;6.91;64.82;99994.98;107764;1272;22831;-82
2022/12/30 02:47:22;;;;;;;13.80;12.30;;;;;;;6.95;64.83;99989.52;109171;1271;21930;-83
2022/12/30 02:52:56;;;;;;;13.30;12.00;;;;;;;7.05;64.91;99990.79;109052;1272;23663;-82
2022/12/30 02:55:26;;;;;;;15.70;13.30;;;;;;;7.13;64.91;99989.33;109000;1272;22026;-82
2022/12/30 02:57:59;;;;;;;15.40;13.60;;;;;;;7.21;64.82;99983.73;109175;1272;21928;-80
2022/12/30 03:04:10;;;;;;;13.80;11.10;;;;;;;7.31;64.58;99988.30;109041;1272;21924;-79
2022/12/30 03:06:57;;;;;;;13.70;11.70;;;;;;;7.33;64.45;99993.25;109166;1269;23049;-79
2022/12/30 03:13:30;;;;;;;12.70;10.50;;;;;;;7.31;64.44;99994.52;108701;1270;22578;-79
2022/12/30 03:16:21;;;;;;;14.10;11.10;;;;;;;7.29;64.43;99993.36;108377;1277;23124;-80
2022/12/30 03:18:54;;;;;;;14.40;11.20;;;;;;;7.32;64.35;99999.86;108578;1279;23049;-79
2022/12/30 03:21:27;;;;;;;11.20;9.80;;;;;;;7.34;64.41;100008.44;108290;1280;21965;-80
2022/12/30 03:27:05;;;;;;;16.40;11.80;;;;;;;7.38;64.32;100017.83;108356;1280;21943;-78
2022/12/30 03:30:00;;;;;;;11.10;10.00;;;;;;;7.41;64.34;100017.40;108238;1280;22642;-80
2022/12/30 03:32:30;;;;;;;10.80;9.80;;;;;;;7.44;64.37;100020.28;108404;1278;21950;-78
2022/12/30 03:35:00;;;;;;;13.60;10.10;;;;;;;7.48;64.26;100020.66;108239;1281;23611;-78
2022/12/30 03:37:38;;;;;;;12.80;11.10;;;;;;;7.50;64.08;100025.10;108241;1281;21934;-80
2022/12/30 03:40:35;;;;;;;10.60;9.20;;;;;;;7.51;64.04;100026.81;108407;1281;21916;-82
2022/12/30 03:43:07;;;;;;;11.30;9.70;;;;;;;7.50;64.17;100026.85;108549;1278;21964;-82
2022/12/30 03:45:42;;;;;;;13.00;9.70;;;;;;;7.49;63.95;100022.04;108756;1280;23659;-82
2022/12/30 03:48:14;;;;;;;10.80;9.60;;;;;;;7.49;64.03;100018.90;108615;1279;22770;-81
2022/12/30 03:50:45;;;;;;;10.70;9.50;;;;;;;7.50;63.89;100020.25;108319;1283;22042;-79
2022/12/30 03:53:15;;;;;;;13.60;10.30;;;;;;;7.51;63.91;100021.77;108312;1278;22405;-78
2022/12/30 03:55:44;;;;;;;12.60;11.30;;;;;;;7.56;63.85;100021.28;108492;1271;23054;-79
2022/12/30 03:58:13;;;;;;;14.20;11.80;;;;;;;7.57;63.82;100022.64;108509;1279;21904;-79
2022/12/30 04:00:43;;;;;;;16.60;12.00;;;;;;;7.58;63.64;100027.61;108390;1279;23756;-80
2022/12/30 04:03:15;;;;;;;16.80;12.60;;;;;;;7.61;63.64;100033.60;108725;1279;23032;-79
2022/12/30 04:05:45;;;;;;;17.50;11.70;;;;;;;7.62;63.62;100036.67;108453;1277;24503;-78
2022/12/30 04:08:19;;;;;;;12.30;11.00;;;;;;;7.62;63.59;100044.30;108530;1277;23048;-79
2022/12/30 04:10:49;;;;;;;15.50;11.50;;;;;;;7.62;63.60;100051.23;108760;1277;21953;-79
2022/12/30 04:13:19;;;;;;;13.90;11.30;;;;;;;7.62;63.55;100057.30;108402;1283;21959;-81
2022/12/30 04:15:51;;;;;;;12.00;10.40;;;;;;;7.61;63.50;100061.83;108364;1277;21938;-80
2022/12/30 04:18:20;;;;;;;11.70;10.50;;;;;;;7.61;63.66;100060.78;108555;1278;22036;-80
2022/12/30 04:20:50;;;;;;;14.80;11.10;;;;;;;7.62;63.64;100058.35;108556;1269;23678;-79
2022/12/30 04:23:19;;;;;;;13.00;11.20;;;;;;;7.63;63.69;100058.15;108488;1276;21994;-79
2022/12/30 04:25:48;;;;;;;14.50;10.80;;;;;;;7.64;63.72;100061.21;108527;1275;22066;-77
2022/12/30 04:28:18;;;;;;;15.10;10.90;;;;;;;7.64;63.68;100062.59;108347;1274;21959;-80
2022/12/30 04:30:50;;;;;;;17.10;10.50;;;;;;;7.63;63.74;100066.97;108469;1277;22700;-80
2022/12/30 04:33:22;;;;;;;13.70;9.90;;;;;;;7.63;63.72;100066.11;108472;1277;21930;-79
2022/12/30 04:35:54;;;;;;;11.20;9.90;;;;;;;7.63;63.71;100066.12;108331;1277;23406;-82
2022/12/30 04:38:26;;;;;;;13.80;10.00;;;;;;;7.63;63.79;100065.73;108729;1272;22112;-80
2022/12/30 04:40:55;;;;;;;11.60;10.30;;;;;;;7.64;63.87;100072.81;108779;1272;23614;-80
2022/12/30 04:43:25;;;;;;;12.70;10.10;;;;;;;7.66;63.82;100079.52;108829;1271;21986;-78
2022/12/30 04:46:14;;;;;;;14.80;11.30;;;;;;;7.65;63.82;100081.11;109040;1272;21958;-83
2022/12/30 04:48:57;;;;;;;;;;;;;;;7.62;64.01;100082.77;108988;1271;22315;-81
2022/12/30 04:51:29;;;;;;;14.50;10.60;;;;;;;7.53;64.17;100084.58;108783;1272;23044;-80
2022/12/30 04:53:59;;;;;;;12.00;8.90;;;;;;;7.53;64.18;100087.86;108768;1272;21917;-80
2022/12/30 04:56:28;;;;;;;11.90;9.90;;;;;;;7.56;64.21;100090.73;108953;1268;23051;-80
2022/12/30 04:59:00;;;;;;;14.30;9.40;;;;;;;7.57;64.22;100095.89;109106;1271;21962;-80
2022/12/30 05:01:30;;;;;;;13.10;9.10;;;;;;;7.60;64.27;100102.55;109012;1272;23525;-80
2022/12/30 05:03:59;;;;;;;11.10;9.10;;;;;;;7.63;64.23;100102.48;109120;1272;21924;-80
2022/12/30 05:06:29;;;;;;;13.60;9.90;;;;;;;7.66;64.28;100100.30;109007;1272;22709;-79
2022/12/30 05:08:58;;;;;;;11.10;8.90;;;;;;;7.69;64.25;100102.98;108602;1278;23611;-79
2022/12/30 05:11:28;;;;;;;9.70;8.50;;;;;;;7.72;64.25;100107.76;108513;1279;22563;-80
2022/12/30 05:14:02;;;;;;;10.10;8.30;;;;;;;7.73;64.20;100114.84;108390;1280;23643;-80
2022/12/30 05:16:31;;;;;;;11.00;9.40;;;;;;;7.74;64.28;100117.40;108255;1278;23614;-80
2022/12/30 05:19:01;;;;;;;12.70;8.60;;;;;;;7.75;64.23;100120.66;108744;1276;21939;-80
2022/12/30 05:21:32;;;;;;;13.20;9.00;;;;;;;7.74;64.30;100115.98;108350;1280;21950;-80
2022/12/30 05:26:50;;;;;;;11.10;8.60;;;;;;;7.76;64.48;100126.16;108397;1272;22850;-80
2022/12/30 05:29:19;;;;;;;11.50;9.60;;;;;;;7.78;64.54;100127.49;108983;1268;21937;-78
2022/12/30 05:31:49;;;;;;;12.60;9.50;;;;;;;7.81;64.55;100124.98;108677;1274;22049;-78
2022/12/30 05:34:18;;;;;;;13.50;9.50;;;;;;;7.83;64.56;100130.45;108882;1269;23049;-79
2022/12/30 05:36:47;;;;;;;11.90;8.90;;;;;;;7.87;64.64;100136.42;108876;1269;21921;-81
2022/12/30 05:39:16;;;;;;;9.90;8.90;;;;;;;7.89;64.51;100139.99;108728;1271;21920;-81
2022/12/30 05:41:48;;;;;;;13.50;8.80;;;;;;;7.89;64.54;100146.05;108861;1274;21938;-78
2022/12/30 05:44:18;;;;;;;13.20;10.10;;;;;;;7.89;64.54;100157.48;108774;1273;21950;-79
2022/12/30 05:46:47;;;;;;;11.70;9.10;;;;;;;7.90;64.59;100165.41;108704;1271;21933;-81
2022/12/30 05:49:26;;;;;;;18.70;14.50;;;;;;;7.91;64.57;100168.85;108817;1273;21943;-80
2022/12/30 05:52:05;;;;;;;12.50;10.30;;;;;;;7.92;64.59;100173.52;108909;1274;21908;-79
2022/12/30 05:54:36;;;;;;;13.10;10.60;;;;;;;7.93;64.57;100179.37;109100;1272;21932;-80
2022/12/30 05:57:09;;;;;;;16.20;12.80;;;;;;;7.93;64.57;100180.58;108723;1271;22067;-78
2022/12/30 05:59:38;;;;;;;17.70;13.50;;;;;;;7.93;64.63;100183.70;108749;1270;22075;-78
2022/12/30 06:02:08;;;;;;;16.70;11.30;;;;;;;7.92;64.55;100185.98;108846;1274;21940;-78
2022/12/30 06:04:38;;;;;;;14.40;9.70;;;;;;;7.92;64.57;100189.45;108641;1275;22387;-80
2022/12/30 06:07:08;;;;;;;15.30;11.10;;;;;;;7.89;64.69;100194.73;108659;1276;21929;-78
2022/12/30 06:09:37;;;;;;;13.30;9.90;;;;;;;7.89;64.79;100200.80;108552;1276;21935;-79
2022/12/30 06:12:09;;;;;;;14.90;10.70;;;;;;;7.90;64.83;100206.15;108808;1271;22357;-79
2022/12/30 06:14:39;;;;;;;12.80;9.70;;;;;;;7.90;64.84;100211.15;108861;1276;23388;-79
2022/12/30 06:17:15;;;;;;;12.40;10.00;;;;;;;7.90;64.82;100216.20;108616;1277;21933;-80
2022/12/30 06:19:44;;;;;;;13.40;11.00;;;;;;;7.91;64.91;100222.75;108675;1276;24275;-78
2022/12/30 06:22:14;;;;;;;12.90;10.30;;;;;;;7.90;64.88;100230.22;108726;1271;22077;-79
2022/12/30 06:24:50;;;;;;;15.10;11.20;;;;;;;7.89;64.91;100237.53;108998;1271;23595;-79
2022/12/30 06:27:20;;;;;;;16.20;11.20;;;;;;;7.86;64.82;100244.20;108386;1277;22016;-80
2022/12/30 06:29:49;;;;;;;14.00;10.90;;;;;;;7.83;64.91;100241.67;108605;1275;23653;-79
2022/12/30 06:32:18;;;;;;;15.60;11.90;;;;;;;7.82;64.92;100243.27;108598;1277;23616;-78
2022/12/30 06:34:47;;;;;;;16.60;10.70;;;;;;;7.80;64.94;100240.20;108543;1272;22423;-78
2022/12/30 06:37:16;;;;;;;16.00;10.00;;;;;;;7.79;64.99;100243.36;108522;1277;23018;-79
2022/12/30 06:39:45;;;;;;;12.70;9.70;;;;;;;7.77;64.96;100250.33;108617;1276;21939;-79
2022/12/30 06:42:15;;;;;;;10.90;8.80;;;;;;;7.75;65.04;100258.52;108591;1277;21986;-80
2022/12/30 06:44:44;;;;;;;16.10;9.80;;;;;;;7.73;65.03;100264.66;108705;1274;22288;-80
2022/12/30 06:47:13;;;;;;;13.80;9.60;;;;;;;7.71;64.99;100265.92;108729;1274;21925;-81
2022/12/30 06:49:42;;;;;;;14.30;9.40;;;;;;;7.67;65.00;100266.19;109085;1273;22220;-79
2022/12/30 06:52:12;;;;;;;17.30;12.20;;;;;;;7.63;65.05;100271.48;108718;1269;21986;-78
2022/12/30 06:54:44;;;;;;;23.10;16.30;;;;;;;7.59;65.00;100275.08;108693;1274;21924;-79
2022/12/30 06:57:13;;;;;;;27.80;19.90;;;;;;;7.55;65.10;100281.77;108779;1273;21972;-80
2022/12/30 06:59:42;;;;;;;20.20;17.60;;;;;;;7.52;65.18;100282.20;108861;1274;23609;-78
2022/12/30 07:02:13;;;;;;;24.50;16.90;;;;;;;7.48;65.37;100289.38;108574;1268;24287;-79
2022/12/30 07:04:42;;;;;;;17.00;13.90;;;;;;;7.44;65.42;100292.27;108530;1275;21892;-80
2022/12/30 07:07:11;;;;;;;18.10;14.50;;;;;;;7.41;65.53;100298.22;108532;1277;21942;-80
2022/12/30 07:09:40;;;;;;;29.50;21.80;;;;;;;7.39;65.60;100299.81;108490;1277;21926;-79
2022/12/30 07:12:12;;;;;;;16.80;13.90;;;;;;;7.37;65.65;100306.45;108610;1277;21933;-79
2022/12/30 07:14:42;;;;;;;13.70;10.30;;;;;;;7.34;65.58;100310.70;108740;1277;21975;-82
2022/12/30 07:17:12;;;;;;;14.60;11.40;;;;;;;7.31;65.74;100311.64;108451;1277;21940;-80
2022/12/30 07:19:41;;;;;;;14.50;10.90;;;;;;;7.28;65.82;100312.58;108638;1272;23655;-80
2022/12/30 07:22:10;;;;;;;13.90;10.50;;;;;;;7.28;65.95;100312.24;108984;1272;21960;-84
2022/12/30 07:24:39;;;;;;;14.50;11.10;;;;;;;7.25;65.98;100314.01;108736;1272;22020;-79
2022/12/30 07:27:12;;;;;;;17.40;11.00;;;;;;;7.25;66.14;100315.24;108751;1277;22439;-80
2022/12/30 07:29:44;;;;;;;28.40;11.70;;;;;;;7.25;66.20;100312.98;108810;1277;21958;-83
2022/12/30 07:32:14;;;;;;;19.40;11.30;;;;;;;7.27;66.36;100317.27;108806;1278;22998;-79
2022/12/30 07:34:43;;;;;;;15.60;12.10;;;;;;;7.31;66.38;100321.17;108630;1277;21930;-83
2022/12/30 07:37:16;;;;;;;16.10;10.90;;;;;;;7.32;66.25;100323.40;108840;1277;23681;-81
2022/12/30 07:39:46;;;;;;;17.40;12.20;;;;;;;7.33;66.16;100328.71;108751;1274;21942;-81
2022/12/30 07:42:15;;;;;;;33.50;19.90;;;;;;;7.35;66.05;100328.31;108761;1277;22724;-81
2022/12/30 07:44:45;;;;;;;31.90;21.20;;;;;;;7.39;66.11;100331.52;108632;1277;22528;-81
2022/12/30 07:47:14;;;;;;;29.30;19.00;;;;;;;7.42;65.95;100337.00;108879;1277;23576;-81
2022/12/30 07:49:46;;;;;;;31.70;23.80;;;;;;;7.44;65.79;100345.25;108824;1273;24566;-83
2022/12/30 07:52:20;;;;;;;73.20;65.50;;;;;;;7.44;65.71;100353.54;108859;1277;21975;-84
2022/12/30 07:54:51;;;;;;;66.90;60.20;;;;;;;7.45;65.48;100355.10;108816;1276;21931;-83
2022/12/30 07:57:22;;;;;;;40.90;32.70;;;;;;;7.45;65.44;100354.73;108862;1278;22999;-83
2022/12/30 07:59:52;;;;;;;23.20;19.40;;;;;;;7.45;65.41;100356.48;108885;1270;23192;-82
2022/12/30 08:02:23;;;;;;;22.80;17.30;;;;;;;7.41;65.25;100360.54;108960;1271;21971;-82
2022/12/30 08:04:53;;;;;;;24.20;17.30;;;;;;;7.38;65.29;100365.30;108839;1277;21948;-83
2022/12/30 08:07:23;;;;;;;33.40;28.40;;;;;;;7.37;65.18;100371.56;108794;1277;22082;-85
2022/12/30 08:09:53;;;;;;;21.60;15.80;;;;;;;7.38;65.31;100373.44;108895;1280;21936;-85
2022/12/30 08:12:23;;;;;;;21.80;15.30;;;;;;;7.40;65.25;100382.21;108670;1280;21953;-83
2022/12/30 08:14:52;;;;;;;18.90;12.90;;;;;;;7.43;65.26;100388.91;108697;1278;22546;-82
2022/12/30 08:17:22;;;;;;;20.50;13.50;;;;;;;7.48;65.28;100396.75;108528;1280;21942;-83
2022/12/30 08:19:51;;;;;;;21.70;15.10;;;;;;;7.52;65.15;100405.14;108177;1283;22890;-83
2022/12/30 08:22:21;;;;;;;29.00;19.60;;;;;;;7.62;65.33;100410.61;108304;1277;21945;-82
2022/12/30 08:24:50;;;;;;;38.10;23.40;;;;;;;7.69;65.31;100406.96;108782;1277;22141;-82
2022/12/30 08:27:20;;;;;;;29.50;18.80;;;;;;;7.77;65.12;100409.35;108726;1277;23853;-83
2022/12/30 08:29:50;;;;;;;73.80;50.00;;;;;;;7.85;65.05;100416.79;108966;1277;21991;-84
2022/12/30 08:32:20;;;;;;;86.00;62.00;;;;;;;7.94;65.03;100413.08;108891;1278;21945;-83
2022/12/30 08:34:49;;;;;;;44.30;29.60;;;;;;;8.03;64.84;100415.44;108843;1277;21998;-83
2022/12/30 08:37:19;;;;;;;54.70;34.90;;;;;;;8.09;64.72;100419.27;108870;1277;21958;-85
2022/12/30 08:39:51;;;;;;;42.10;30.20;;;;;;;8.14;64.45;100417.77;108606;1277;23676;-81
2022/12/30 08:42:23;;;;;;;45.00;33.40;;;;;;;8.15;64.25;100420.15;108805;1271;22060;-79
2022/12/30 08:44:53;;;;;;;42.30;28.60;;;;;;;8.15;63.94;100428.48;108943;1274;21943;-81
2022/12/30 08:47:22;;;;;;;28.80;21.90;;;;;;;8.13;63.79;100432.52;108924;1271;22055;-79
2022/12/30 08:49:54;;;;;;;20.60;16.40;;;;;;;8.12;63.73;100434.99;108658;1277;21939;-80
2022/12/30 08:52:27;;;;;;;21.10;13.60;;;;;;;8.10;63.66;100445.09;108863;1277;23595;-81
2022/12/30 08:54:56;;;;;;;21.70;14.00;;;;;;;8.09;63.58;100452.91;108863;1277;21945;-78
2022/12/30 08:57:26;;;;;;;23.70;15.70;;;;;;;8.11;63.45;100454.78;108581;1276;21950;-80
2022/12/30 08:59:55;;;;;;;23.70;17.00;;;;;;;8.13;63.47;100459.04;108858;1277;22010;-80
2022/12/30 09:02:25;;;;;;;32.60;23.80;;;;;;;8.16;63.45;100460.34;108691;1277;22626;-80
2022/12/30 09:04:58;;;;;;;28.00;21.90;;;;;;;8.18;63.30;100459.60;108835;1277;22699;-80
2022/12/30 09:07:34;;;;;;;31.20;19.50;;;;;;;8.21;63.25;100462.14;108929;1271;21927;-80
2022/12/30 09:10:27;;;;;;;32.10;19.50;;;;;;;8.21;63.30;100467.52;109094;1271;21921;-79
2022/12/30 09:12:57;;;;;;;30.60;17.30;;;;;;;8.25;63.26;100478.32;109076;1271;21931;-79
2022/12/30 09:15:34;;;;;;;20.80;13.20;;;;;;;8.30;63.28;100477.50;109186;1271;24342;-79
2022/12/30 09:18:09;;;;;;;22.20;15.50;;;;;;;8.34;63.26;100476.16;109041;1271;21935;-80
2022/12/30 09:20:40;;;;;;;25.70;14.20;;;;;;;8.39;63.12;100471.20;109292;1271;23669;-81
2022/12/30 09:23:15;;;;;;;38.10;22.50;;;;;;;8.44;63.08;100468.48;108864;1276;21935;-81
2022/12/30 09:25:49;;;;;;;31.10;17.80;;;;;;;8.49;63.00;100469.56;108802;1277;22180;-80
2022/12/30 09:28:21;;;;;;;23.70;13.70;;;;;;;8.53;62.86;100468.42;108868;1276;23052;-79
2022/12/30 09:30:59;;;;;;;26.00;16.70;;;;;;;8.58;62.92;100465.67;108400;1283;21973;-81
2022/12/30 09:33:33;;;;;;;33.40;18.70;;;;;;;8.67;62.70;100470.13;108155;1286;21937;-80
2022/12/30 09:36:17;;;;;;;28.20;14.40;;;;;;;8.77;62.68;100478.69;108173;1284;23785;-80
2022/12/30 09:38:54;;;;;;;30.10;17.00;;;;;;;8.89;62.63;100484.93;108163;1286;22384;-80
2022/12/30 09:45:00;;;;;;;21.30;11.50;;;;;;;9.19;62.25;100495.35;107803;1292;22359;-80
2022/12/30 09:47:43;;;;;;;18.90;8.40;;;;;;;9.32;61.84;100496.16;107891;1289;21971;-80
2022/12/30 09:50:40;;;;;;;15.60;8.60;;;;;;;9.45;61.36;100492.30;108420;1283;22919;-81
2022/12/30 09:54:03;;;;;;;22.60;10.20;;;;;;;9.51;60.94;100485.33;108900;1276;22903;-81
2022/12/30 09:56:42;;;;;;;21.70;9.70;;;;;;;9.55;60.52;100483.84;108161;1286;21922;-80
2022/12/30 09:59:32;;;;;;;14.30;6.10;;;;;;;9.62;60.33;100489.70;108129;1282;21964;-81
2022/12/30 10:02:27;;;;;;;18.90;8.00;;;;;;;9.66;59.99;100490.96;108422;1282;21958;-81
2022/12/30 10:05:00;;;;;;;13.90;7.30;;;;;;;9.72;59.84;100494.42;108534;1283;22136;-81
2022/12/30 10:07:58;;;;;;;13.50;7.50;;;;;;;9.80;59.69;100496.61;108512;1278;21951;-80
2022/12/30 10:11:08;;;;;;;10.50;7.00;;;;;;;9.85;59.49;100497.48;108402;1281;21961;-81
2022/12/30 10:14:14;;;;;;;18.40;8.30;;;;;;;9.89;59.23;100493.88;108454;1283;21944;-81
2022/12/30 10:17:18;;;;;;;18.60;8.70;;;;;;;9.92;58.99;100493.24;108785;1277;22635;-80
2022/12/30 10:20:01;;;;;;;13.50;7.00;;;;;;;9.96;58.92;100491.55;108408;1284;23000;-80
2022/12/30 10:23:02;;;;;;;15.30;9.00;;;;;;;10.01;58.65;100493.99;108539;1283;23817;-81
2022/12/30 10:26:14;;;;;;;16.20;8.30;;;;;;;10.09;58.66;100494.25;108454;1283;22991;-82
2022/12/30 10:29:05;;;;;;;20.90;11.30;;;;;;;10.20;58.46;100489.05;108437;1284;21940;-81
2022/12/30 10:31:49;;;;;;;21.80;9.90;;;;;;;10.31;58.20;100492.50;108432;1286;21978;-81
2022/12/30 10:34:29;;;;;;;14.30;8.60;;;;;;;10.45;57.98;100492.71;108620;1280;21918;-82
2022/12/30 10:37:32;;;;;;;18.60;9.40;;;;;;;10.51;57.38;100491.27;108848;1278;21946;-83
2022/12/30 10:40:19;;;;;;;18.70;10.30;;;;;;;10.61;57.17;100488.34;108735;1281;21962;-82
2022/12/30 10:43:43;;;;;;;28.70;17.30;;;;;;;10.73;56.90;100490.48;108659;1281;23006;-81
2022/12/30 10:46:48;;;;;;;17.30;9.50;;;;;;;10.88;56.51;100492.56;108843;1277;21947;-81
2022/12/30 10:49:53;;;;;;;12.90;7.70;;;;;;;11.00;56.08;100495.08;108789;1276;22952;-82
2022/12/30 10:52:30;;;;;;;22.60;10.40;;;;;;;11.12;55.48;100496.18;108780;1280;21956;-82
2022/12/30 10:55:28;;;;;;;20.90;10.20;;;;;;;11.25;55.04;100498.48;108392;1283;21979;-81
2022/12/30 10:58:03;;;;;;;20.90;9.90;;;;;;;11.39;54.74;100493.09;108662;1277;21956;-80
2022/12/30 11:00:37;;;;;;;15.50;7.50;;;;;;;11.58;54.30;100488.69;108650;1278;23064;-80
2022/12/30 11:03:30;;;;;;;21.70;10.80;;;;;;;11.88;53.74;100478.44;108228;1280;23757;-79
2022/12/30 11:06:37;;;;;;;17.30;9.10;;;;;;;12.37;53.17;100468.69;108213;1280;21935;-79
2022/12/30 11:09:12;;;;;;;23.70;10.60;;;;;;;13.39;55.42;100471.41;107836;1285;23696;-79
2022/12/30 11:15:27;;;;;;;18.50;10.30;;;;;;;15.58;49.94;100466.58;107909;1289;23767;-79
2022/12/30 11:17:59;;;;;;;14.40;8.40;;;;;;;15.58;45.77;100466.96;107668;1289;21959;-79
2022/12/30 11:20:39;;;;;;;13.10;6.90;;;;;;;15.15;44.41;100465.97;107921;1281;24391;-79
2022/12/30 11:23:41;;;;;;;13.50;7.60;;;;;;;14.76;44.84;100469.33;108368;1280;21953;-79
2022/12/30 11:26:22;;;;;;;11.80;6.60;;;;;;;14.49;45.40;100466.02;107868;1289;21980;-79
2022/12/30 11:29:02;;;;;;;13.70;6.50;;;;;;;14.22;45.61;100463.52;107552;1289;21956;-80
2022/12/30 11:31:47;;;;;;;15.10;7.40;;;;;;;13.87;45.43;100463.85;107492;1289;23726;-79
2022/12/30 11:34:32;;;;;;;12.60;7.20;;;;;;;13.40;45.53;100460.56;107567;1289;21918;-78
2022/12/30 11:37:29;;;;;;;15.20;8.40;;;;;;;12.91;46.17;100461.42;107663;1289;22002;-79
2022/12/30 11:40:36;;;;;;;12.50;7.00;;;;;;;12.51;46.92;100455.16;107709;1289;23600;-79
2022/12/30 11:43:17;;;;;;;16.50;5.80;;;;;;;12.11;47.53;100451.34;107537;1289;21943;-79
2022/12/30 11:46:03;;;;;;;17.10;10.30;;;;;;;11.78;48.00;100446.92;108109;1280;21963;-80
2022/12/30 11:48:53;;;;;;;18.30;10.50;;;;;;;11.49;48.57;100446.35;108478;1280;22122;-79
2022/12/30 11:51:42;;;;;;;17.30;9.50;;;;;;;11.25;49.13;100452.16;108302;1280;22712;-80
2022/12/30 11:54:30;;;;;;;19.70;13.70;;;;;;;11.01;49.59;100462.33;108495;1280;24431;-79
2022/12/30 11:57:06;;;;;;;20.20;9.40;;;;;;;10.83;50.07;100476.73;108052;1283;22088;-79
2022/12/30 11:59:45;;;;;;;16.30;8.40;;;;;;;10.73;50.38;100477.46;108213;1274;21950;-78
2022/12/30 12:02:36;;;;;;;12.30;5.50;;;;;;;10.61;50.65;100478.58;107987;1280;21942;-78
2022/12/30 12:05:28;;;;;;;9.00;5.40;;;;;;;10.48;50.97;100474.00;108276;1280;21945;-79
2022/12/30 12:08:33;;;;;;;14.70;5.40;;;;;;;10.36;51.16;100465.38;108549;1280;23060;-79
2022/12/30 12:11:45;;;;;;;13.50;5.60;;;;;;;10.24;51.25;100467.48;108466;1279;22048;-80
2022/12/30 12:14:25;;;;;;;12.20;5.40;;;;;;;10.13;51.44;100472.40;108186;1281;22731;-79
2022/12/30 12:17:41;;;;;;;12.60;7.00;;;;;;;10.08;51.56;100475.18;108580;1280;22884;-82
2022/12/30 12:20:33;;;;;;;19.80;8.00;;;;;;;10.00;51.82;100466.23;108403;1286;23697;-81
2022/12/30 12:23:23;;;;;;;13.80;5.90;;;;;;;9.96;52.01;100460.60;108324;1286;23116;-80
2022/12/30 12:26:11;;;;;;;15.50;6.20;;;;;;;9.95;52.11;100457.33;108362;1286;22865;-80
2022/12/30 12:28:44;;;;;;;17.50;7.10;;;;;;;9.91;52.21;100465.33;108385;1286;21912;-80
2022/12/30 12:31:50;;;;;;;19.20;7.70;;;;;;;9.88;52.26;100464.02;108418;1285;21964;-81
2022/12/30 12:34:56;;;;;;;13.40;6.20;;;;;;;9.85;52.44;100468.82;108205;1286;22813;-81
2022/12/30 12:38:01;;;;;;;16.40;7.90;;;;;;;9.79;52.57;100478.73;108343;1281;21963;-80
2022/12/30 12:41:15;;;;;;;14.20;6.80;;;;;;;9.75;52.89;100487.73;108387;1285;22228;-80
2022/12/30 12:44:12;;;;;;;17.70;6.00;;;;;;;9.70;53.05;100484.58;107831;1281;23118;-81
2022/12/30 12:47:23;;;;;;;13.10;6.00;;;;;;;9.68;53.16;100478.38;107769;1289;21944;-82
2022/12/30 12:50:26;;;;;;;11.10;5.20;;;;;;;9.64;53.28;100471.73;107259;1295;22128;-79
2022/12/30 12:53:41;;;;;;;9.80;5.10;;;;;;;9.61;53.57;100465.05;107736;1289;22281;-79
2022/12/30 12:56:45;;;;;;;12.50;6.60;;;;;;;9.56;53.83;100467.46;107903;1284;22069;-79
2022/12/30 12:59:37;;;;;;;21.80;8.90;;;;;;;9.53;54.18;100468.27;108469;1283;22446;-78